Time;durP1;ratioP1;P1;durP2;ratioP2;P2;SDS_P1;SDS_P2;PMS_P1;PMS_P2;Temp;Humidity;BMP_temperature;BMP_pressure;BME280_temperature;BME280_humidity;BME280_pressure;Samples;Min_cycle;Max_cycle;Signal;HPM_P1;HPM_P2
2023/02/21 02:48:09;;;;;;;3.85;3.22;;;20.00;61.50;;;;;;4929913;28;86953;-92
2023/02/21 02:50:36;;;;;;;3.30;2.85;;;19.90;61.40;;;;;;4919226;28;93037;-89
2023/02/21 02:53:03;;;;;;;4.53;3.47;;;19.90;61.40;;;;;;4919334;28;87755;-90
2023/02/21 02:55:31;;;;;;;3.80;2.97;;;19.90;61.20;;;;;;4919582;28;87366;-90
2023/02/21 02:57:58;;;;;;;3.53;3.23;;;19.90;61.40;;;;;;4919763;28;86470;-91
2023/02/21 03:00:24;;;;;;;3.47;2.85;;;19.90;61.40;;;;;;4918717;28;87894;-92
2023/02/21 03:10:30;;;;;;;3.50;3.20;;;19.90;61.40;;;;;;4896179;28;87164;-91
2023/02/21 03:13:04;;;;;;;3.95;3.47;;;19.90;61.40;;;;;;4901674;28;87986;-91
2023/02/21 03:15:39;;;;;;;3.80;3.25;;;19.90;61.30;;;;;;4888683;28;87381;-91
2023/02/21 03:18:14;;;;;;;3.28;2.97;;;19.90;61.20;;;;;;4897223;28;87333;-90
2023/02/21 03:20:42;;;;;;;3.47;3.13;;;19.90;61.40;;;;;;4897867;28;86964;-91
2023/02/21 03:23:13;;;;;;;3.05;2.75;;;19.90;61.30;;;;;;4897376;28;87706;-91
2023/02/21 03:25:39;;;;;;;3.22;2.90;;;19.80;61.10;;;;;;4858529;28;91506;-91
2023/02/21 03:28:05;;;;;;;3.83;3.08;;;19.80;61.20;;;;;;4859530;29;87309;-91
2023/02/21 03:30:31;;;;;;;3.88;2.97;;;19.80;61.40;;;;;;4858609;29;87259;-90
2023/02/21 03:32:57;;;;;;;4.00;3.25;;;19.80;61.40;;;;;;4859013;29;88328;-90
2023/02/21 03:35:28;;;;;;;3.38;3.08;;;19.80;61.20;;;;;;4875171;28;92165;-91
2023/02/21 03:37:54;;;;;;;3.35;3.03;;;19.80;61.10;;;;;;4875425;28;87613;-92
2023/02/21 03:40:22;;;;;;;3.10;2.80;;;19.80;61.10;;;;;;4842912;29;89483;-91
2023/02/21 03:42:49;;;;;;;3.47;2.90;;;19.80;61.20;;;;;;4877471;28;88171;-91
2023/02/21 03:45:15;;;;;;;3.97;3.35;;;19.80;61.20;;;;;;4896649;28;90085;-90
2023/02/21 03:47:40;;;;;;;3.47;3.17;;;19.80;61.20;;;;;;4897460;28;87484;-90
2023/02/21 03:50:06;;;;;;;4.20;3.33;;;19.80;61.10;;;;;;4909502;28;90726;-90
2023/02/21 03:52:32;;;;;;;3.70;3.35;;;19.80;61.10;;;;;;4916858;28;90183;-91
2023/02/21 03:54:57;;;;;;;4.22;3.42;;;19.80;61.00;;;;;;4916477;28;88850;-90
2023/02/21 03:57:23;;;;;;;4.13;3.42;;;19.80;61.10;;;;;;4915940;28;88176;-91
2023/02/21 03:59:49;;;;;;;3.72;3.30;;;19.70;61.10;;;;;;4918708;28;87387;-91
2023/02/21 04:02:15;;;;;;;3.63;3.10;;;19.70;62.00;;;;;;4921136;28;88916;-91
2023/02/21 04:04:40;;;;;;;4.13;3.22;;;19.70;61.10;;;;;;4918503;28;87932;-91
2023/02/21 04:07:24;;;;;;;4.13;3.20;;;19.70;61.20;;;;;;4902277;28;89128;-90
2023/02/21 04:09:49;;;;;;;3.33;3.03;;;19.70;61.10;;;;;;4902322;28;90835;-91
2023/02/21 04:12:15;;;;;;;3.55;3.15;;;19.70;61.20;;;;;;4908630;28;91363;-90
2023/02/21 04:14:41;;;;;;;3.38;3.00;;;19.70;61.00;;;;;;4930939;28;91209;-91
2023/02/21 04:17:06;;;;;;;3.78;3.33;;;19.70;61.10;;;;;;4917181;28;87275;-91
2023/02/21 04:19:51;;;;;;;3.72;3.05;;;19.70;61.20;;;;;;4915267;28;87499;-90
2023/02/21 04:22:17;;;;;;;3.30;2.85;;;19.70;61.20;;;;;;4935628;28;90900;-91
2023/02/21 04:24:42;;;;;;;3.40;2.88;;;19.70;61.30;;;;;;4921340;28;89296;-91
2023/02/21 04:27:08;;;;;;;3.88;3.28;;;19.70;61.00;;;;;;4922133;28;87038;-91
2023/02/21 04:29:34;;;;;;;3.28;2.97;;;19.70;61.20;;;;;;4936259;28;88825;-90
2023/02/21 04:32:01;;;;;;;3.40;3.10;;;19.70;60.90;;;;;;4916692;28;90797;-91
2023/02/21 04:34:27;;;;;;;3.72;3.20;;;19.70;60.80;;;;;;4908236;28;90768;-91
2023/02/21 04:36:53;;;;;;;4.10;3.10;;;19.70;61.10;;;;;;4909078;28;87903;-91
2023/02/21 04:39:18;;;;;;;3.40;2.80;;;19.70;61.00;;;;;;4921754;28;86886;-91
2023/02/21 04:41:44;;;;;;;3.55;3.25;;;19.60;60.70;;;;;;4920187;28;90320;-91
2023/02/21 04:44:10;;;;;;;3.95;3.30;;;19.70;60.90;;;;;;4916819;28;91222;-91
2023/02/21 04:46:36;;;;;;;3.35;3.05;;;19.60;60.90;;;;;;4914012;28;88728;-91
2023/02/21 04:49:01;;;;;;;3.85;2.97;;;19.60;60.90;;;;;;4930586;28;87306;-90
2023/02/21 04:51:27;;;;;;;3.47;3.17;;;19.60;60.80;;;;;;4939092;28;91446;-92
2023/02/21 04:53:54;;;;;;;3.47;3.10;;;19.60;60.70;;;;;;4923471;28;90756;-91
2023/02/21 04:56:22;;;;;;;4.97;3.78;;;19.60;60.90;;;;;;4958309;28;87450;-90
2023/02/21 04:58:48;;;;;;;3.70;3.20;;;19.60;61.00;;;;;;4940359;28;90455;-91
2023/02/21 05:01:15;;;;;;;5.65;3.50;;;19.60;60.80;;;;;;4941423;28;91114;-91
2023/02/21 05:03:41;;;;;;;3.95;3.47;;;19.60;60.60;;;;;;4926542;28;91328;-90
2023/02/21 05:06:07;;;;;;;3.65;3.15;;;19.70;60.60;;;;;;4936072;28;87493;-91
2023/02/21 05:08:34;;;;;;;3.85;3.38;;;19.60;60.60;;;;;;4933351;28;89965;-91
2023/02/21 05:31:10;;;;;;;4.40;3.67;;;19.80;61.20;;;;;;4958025;28;87349;-91
2023/02/21 05:33:36;;;;;;;4.85;3.65;;;19.80;61.00;;;;;;4941017;28;90437;-91
2023/02/21 05:36:02;;;;;;;6.82;3.55;;;19.80;60.70;;;;;;4941397;28;91545;-91
2023/02/21 05:38:27;;;;;;;4.82;3.75;;;19.80;60.80;;;;;;4942119;28;91339;-90
2023/02/21 05:41:01;;;;;;;3.95;3.50;;;19.70;61.00;;;;;;4955676;28;88770;-91
2023/02/21 05:43:26;;;;;;;7.25;3.65;;;19.60;61.40;;;;;;4940198;28;90332;-91
2023/02/21 05:45:52;;;;;;;4.10;3.58;;;19.60;61.30;;;;;;4940459;28;91039;-92
2023/02/21 05:48:17;;;;;;;4.05;3.50;;;19.60;61.50;;;;;;4956800;28;87734;-91
2023/02/21 05:50:44;;;;;;;4.07;3.55;;;19.50;61.50;;;;;;4941259;28;87189;-91
2023/02/21 05:53:09;;;;;;;6.57;3.75;;;19.50;61.30;;;;;;4937174;28;90756;-91
2023/02/21 05:55:36;;;;;;;4.30;3.70;;;19.50;61.50;;;;;;4941501;28;88549;-90
2023/02/21 05:58:01;;;;;;;4.57;3.70;;;19.50;61.40;;;;;;4936773;28;91048;-92
2023/02/21 06:00:29;;;;;;;5.38;3.67;;;19.50;61.20;;;;;;4927471;28;87397;-91
2023/02/21 06:02:55;;;;;;;6.18;3.88;;;19.50;61.60;;;;;;4938165;28;89239;-91
2023/02/21 06:05:22;;;;;;;6.55;3.97;;;19.50;61.60;;;;;;4939111;28;94118;-93
2023/02/21 06:07:47;;;;;;;5.05;3.90;;;19.40;61.50;;;;;;4946618;28;89847;-91
2023/02/21 06:10:14;;;;;;;5.25;3.72;;;19.40;61.50;;;;;;4956665;28;87632;-91
2023/02/21 06:12:40;;;;;;;4.35;3.47;;;19.50;61.30;;;;;;4936947;28;89093;-92
2023/02/21 06:15:06;;;;;;;4.40;3.67;;;19.50;61.40;;;;;;4938966;28;88319;-90
2023/02/21 06:17:35;;;;;;;5.38;4.03;;;19.50;61.10;;;;;;4938935;28;92222;-90
2023/02/21 06:20:16;;;;;;;4.13;3.60;;;19.40;61.10;;;;;;4954140;28;86914;-91
2023/02/21 06:22:42;;;;;;;4.07;3.28;;;19.40;61.00;;;;;;4939903;28;89457;-90
2023/02/21 06:25:08;;;;;;;4.18;3.55;;;19.40;61.10;;;;;;4937940;28;90801;-91
2023/02/21 06:27:34;;;;;;;3.67;3.30;;;19.40;61.20;;;;;;4937278;28;91135;-91
2023/02/21 06:30:00;;;;;;;4.57;3.70;;;19.40;61.20;;;;;;4953881;28;87886;-90
2023/02/21 06:35:47;;;;;;;4.43;3.75;;;19.40;61.00;;;;;;4937381;28;91644;-89
2023/02/21 06:38:13;;;;;;;4.43;3.80;;;19.40;61.00;;;;;;4937083;28;92244;-90
2023/02/21 06:40:39;;;;;;;4.43;3.55;;;19.40;60.70;;;;;;4937273;28;87453;-89
2023/02/21 06:43:04;;;;;;;4.55;3.63;;;19.40;60.80;;;;;;4937594;28;90776;-91
2023/02/21 06:45:30;;;;;;;4.68;3.78;;;19.40;60.90;;;;;;4928132;28;91298;-90
2023/02/21 06:47:56;;;;;;;6.20;3.97;;;19.40;60.80;;;;;;4938069;28;91217;-89
2023/02/21 06:50:21;;;;;;;4.75;3.75;;;19.40;61.00;;;;;;4954856;28;86985;-90
2023/02/21 06:56:12;;;;;;;4.40;3.72;;;19.30;61.00;;;;;;4957288;28;88446;-91
2023/02/21 06:58:37;;;;;;;4.40;3.50;;;19.30;60.90;;;;;;4920526;28;91069;-90
2023/02/21 07:01:03;;;;;;;4.30;3.72;;;19.30;61.00;;;;;;4924054;28;87345;-90
2023/02/21 07:03:32;;;;;;;4.00;3.58;;;19.40;61.00;;;;;;4939258;28;87410;-91
2023/02/21 07:05:57;;;;;;;3.80;3.37;;;19.40;60.80;;;;;;4951080;28;88685;-90
2023/02/21 07:08:25;;;;;;;4.13;3.72;;;19.50;60.60;;;;;;4958736;28;88344;-89
2023/02/21 07:10:50;;;;;;;3.85;3.42;;;19.50;60.70;;;;;;4919621;28;87321;-90
2023/02/21 07:13:16;;;;;;;5.25;3.38;;;19.60;60.70;;;;;;4943297;28;87861;-90
2023/02/21 07:15:42;;;;;;;3.13;2.83;;;19.70;60.60;;;;;;4947372;28;88801;-89
2023/02/21 07:18:07;;;;;;;3.58;3.20;;;19.70;60.50;;;;;;4948959;28;87526;-91
2023/02/21 07:20:34;;;;;;;4.22;3.03;;;19.80;60.50;;;;;;4958059;28;88591;-90
2023/02/21 07:22:59;;;;;;;3.70;3.15;;;19.90;60.20;;;;;;4957776;28;87437;-89
2023/02/21 07:25:25;;;;;;;3.90;3.17;;;19.80;60.00;;;;;;4932884;28;90005;-90
2023/02/21 07:28:10;;;;;;;3.83;3.03;;;19.90;60.10;;;;;;4950269;28;87568;-89
2023/02/21 07:30:35;;;;;;;3.78;3.35;;;19.90;59.70;;;;;;4957460;28;87817;-89
2023/02/21 07:33:01;;;;;;;5.45;2.92;;;19.80;59.80;;;;;;4948169;28;87283;-89
2023/02/21 07:35:27;;;;;;;4.68;3.17;;;19.90;59.70;;;;;;4931329;28;90929;-89
2023/02/21 07:37:52;;;;;;;3.92;3.33;;;19.90;59.60;;;;;;4929563;28;91418;-89
2023/02/21 07:40:18;;;;;;;5.50;3.72;;;19.80;59.80;;;;;;4929843;28;87014;-90
2023/02/21 07:42:44;;;;;;;9.20;4.13;;;19.90;60.20;;;;;;4932138;28;88846;-90
2023/02/21 07:45:10;;;;;;;6.53;3.92;;;19.90;60.30;;;;;;4938588;28;89620;-90
2023/02/21 07:47:36;;;;;;;6.88;4.53;;;19.90;60.50;;;;;;4958572;28;89634;-89
2023/02/21 07:50:03;;;;;;;9.25;3.83;;;19.90;60.60;;;;;;4953759;28;87062;-90
2023/02/21 07:52:28;;;;;;;7.95;4.30;;;20.00;60.70;;;;;;4938922;28;89029;-85
2023/02/21 07:54:54;;;;;;;8.63;4.30;;;20.10;60.20;;;;;;4947046;28;88912;-90
2023/02/21 08:00:41;;;;;;;7.85;4.38;;;20.20;59.00;;;;;;4949033;28;86864;-91
2023/02/21 08:03:11;;;;;;;7.80;4.75;;;20.20;59.30;;;;;;4951619;28;87430;-90
2023/02/21 08:05:36;;;;;;;10.73;5.00;;;20.20;59.50;;;;;;4933504;28;90012;-90
2023/02/21 08:08:02;;;;;;;12.25;5.00;;;20.10;59.50;;;;;;4931143;28;91922;-90
2023/02/21 08:10:28;;;;;;;8.93;4.90;;;20.10;59.60;;;;;;4953504;28;88138;-90
2023/02/21 08:16:15;;;;;;;9.63;4.80;;;20.00;59.90;;;;;;4950593;28;87425;-90
2023/02/21 08:18:41;;;;;;;9.45;4.10;;;20.00;59.80;;;;;;4942354;28;90204;-91
2023/02/21 08:21:09;;;;;;;9.68;4.55;;;20.00;59.80;;;;;;4960042;28;87486;-91
2023/02/21 08:23:34;;;;;;;9.20;4.53;;;20.00;59.80;;;;;;4949571;28;89148;-90
2023/02/21 08:26:22;;;;;;;11.27;4.50;;;19.90;59.80;;;;;;4909070;28;91840;-91
2023/02/21 08:28:47;;;;;;;11.38;5.05;;;19.90;59.80;;;;;;4879032;28;91573;-91
2023/02/21 08:31:13;;;;;;;7.95;4.32;;;19.90;59.90;;;;;;4909966;28;87674;-90
2023/02/21 08:33:39;;;;;;;14.20;5.13;;;19.90;59.80;;;;;;4908606;28;87508;-89
2023/02/21 08:36:05;;;;;;;10.10;4.65;;;19.90;59.90;;;;;;4892061;28;92730;-90
2023/02/21 08:38:30;;;;;;;13.05;5.35;;;19.90;59.80;;;;;;4894618;28;93921;-91
2023/02/21 08:40:56;;;;;;;8.98;4.40;;;19.90;60.00;;;;;;4900944;28;94781;-89
2023/02/21 08:43:23;;;;;;;9.05;4.53;;;20.00;60.60;;;;;;4918551;28;90226;-90
2023/02/21 08:45:49;;;;;;;12.38;4.97;;;20.00;59.70;;;;;;4917764;28;90717;-90
2023/02/21 08:48:15;;;;;;;6.88;4.22;;;20.10;59.70;;;;;;4918473;28;88279;-91
2023/02/21 08:50:41;;;;;;;7.20;3.95;;;20.10;59.50;;;;;;4903252;28;87609;-91
2023/02/21 08:53:07;;;;;;;6.93;3.90;;;20.20;59.50;;;;;;4918846;28;87239;-91
2023/02/21 08:55:32;;;;;;;7.22;4.18;;;20.20;59.40;;;;;;4919272;28;89119;-89
2023/02/21 08:57:58;;;;;;;7.82;4.20;;;20.20;59.50;;;;;;4926098;28;91416;-91
2023/02/21 09:00:42;;;;;;;8.98;3.75;;;20.10;59.50;;;;;;4937575;28;88058;-91
2023/02/21 09:03:08;;;;;;;8.25;3.78;;;20.10;59.60;;;;;;4949212;28;87579;-91
2023/02/21 09:05:33;;;;;;;8.23;4.43;;;20.10;59.60;;;;;;4951561;28;88465;-91
2023/02/21 09:08:00;;;;;;;6.93;3.88;;;20.00;59.50;;;;;;4959763;28;87572;-90
2023/02/21 09:10:28;;;;;;;7.03;4.35;;;20.00;59.60;;;;;;4941613;28;96947;-89
2023/02/21 09:12:54;;;;;;;6.55;3.78;;;20.00;59.70;;;;;;4941432;28;89367;-90
2023/02/21 09:15:20;;;;;;;9.07;4.32;;;20.00;59.70;;;;;;4959301;28;88424;-90
2023/02/21 09:17:45;;;;;;;6.53;4.05;;;20.00;59.60;;;;;;4942108;28;91040;-89
2023/02/21 09:20:16;;;;;;;8.98;4.13;;;20.00;59.60;;;;;;4960087;28;87187;-90
2023/02/21 09:29:33;;;;;;;7.40;3.30;;;20.00;59.70;;;;;;4959563;28;92512;-89
2023/02/21 09:32:00;;;;;;;9.10;4.43;;;20.00;59.40;;;;;;4959971;28;87215;-89
2023/02/21 09:34:26;;;;;;;6.10;3.95;;;20.10;59.60;;;;;;4936111;28;88940;-90
2023/02/21 09:36:53;;;;;;;8.40;4.03;;;20.10;59.50;;;;;;4941649;28;92065;-89
2023/02/21 09:39:20;;;;;;;8.38;4.10;;;20.10;59.50;;;;;;4957441;28;90512;-91
2023/02/21 09:48:32;;;;;;;6.88;3.92;;;20.00;59.40;;;;;;4958479;28;87807;-90
2023/02/21 09:51:05;;;;;;;8.63;3.50;;;20.00;59.60;;;;;;4919239;28;90593;-90
2023/02/21 09:53:35;;;;;;;8.73;4.13;;;20.00;59.60;;;;;;4918528;28;88269;-89
2023/02/21 09:56:11;;;;;;;;;;;20.00;59.60;;;;;;4935269;28;89491;-90
2023/02/21 09:58:42;;;;;;;6.65;3.28;;;20.00;59.40;;;;;;4917074;28;91552;-89
2023/02/21 10:04:40;;;;;;;7.78;3.92;;;20.00;59.40;;;;;;4908520;28;87725;-90
2023/02/21 10:07:33;;;;;;;6.07;3.70;;;20.10;59.40;;;;;;4906818;28;89184;-91
2023/02/21 10:10:08;;;;;;;5.85;3.65;;;20.10;59.30;;;;;;4906531;28;87486;-89
2023/02/21 10:16:10;;;;;;;6.32;3.92;;;20.10;59.40;;;;;;4907714;28;87458;-90
2023/02/21 10:18:47;;;;;;;7.32;3.58;;;20.00;59.30;;;;;;4907355;28;90334;-90
2023/02/21 10:21:27;;;;;;;7.63;3.72;;;20.00;59.50;;;;;;4907654;28;89572;-90
2023/02/21 10:23:56;;;;;;;9.23;3.55;;;20.00;59.40;;;;;;4907888;28;91587;-90
2023/02/21 10:27:04;;;;;;;5.43;3.70;;;20.00;59.40;;;;;;4908945;28;88653;-91
2023/02/21 10:29:45;;;;;;;8.02;4.10;;;20.00;59.20;;;;;;4907105;28;91437;-91
2023/02/21 10:32:10;;;;;;;6.63;3.53;;;20.00;59.20;;;;;;4913015;28;87713;-91
2023/02/21 10:34:36;;;;;;;7.05;4.25;;;20.00;59.20;;;;;;4919401;28;88319;-89
2023/02/21 10:43:54;;;;;;;6.10;3.65;;;20.10;59.00;;;;;;4917896;28;87469;-89
2023/02/21 10:46:30;;;;;;;6.80;3.88;;;20.30;58.50;;;;;;4919339;28;88467;-91
2023/02/21 10:49:18;;;;;;;6.18;3.80;;;20.30;58.40;;;;;;4923517;28;88106;-90
2023/02/21 10:51:43;;;;;;;6.18;3.38;;;20.30;58.50;;;;;;4958626;28;87115;-91
2023/02/21 10:54:21;;;;;;;5.40;3.35;;;20.40;58.60;;;;;;4940209;28;90477;-90
2023/02/21 10:56:56;;;;;;;6.03;3.30;;;20.40;58.80;;;;;;4940590;28;89823;-91
2023/02/21 10:59:42;;;;;;;5.80;3.67;;;20.50;58.80;;;;;;4958603;28;87324;-90
2023/02/21 11:02:34;;;;;;;7.13;3.28;;;20.60;58.70;;;;;;4955660;28;89893;-91
2023/02/21 11:05:21;;;;;;;5.47;2.95;;;20.70;58.60;;;;;;4957629;28;87492;-91
2023/02/21 11:08:02;;;;;;;6.28;3.08;;;20.70;58.70;;;;;;4956229;28;90043;-92
2023/02/21 11:14:17;;;;;;;5.53;3.70;;;20.80;58.60;;;;;;4958464;28;87211;-92
2023/02/21 11:16:43;;;;;;;6.95;3.70;;;20.80;58.80;;;;;;4956915;28;89900;-90
2023/02/21 11:19:12;;;;;;;7.03;3.85;;;20.80;58.80;;;;;;4957328;28;88909;-93
2023/02/21 11:21:38;;;;;;;7.30;3.83;;;20.80;58.80;;;;;;4955842;28;87388;-92
2023/02/21 11:24:06;;;;;;;6.53;3.42;;;20.80;58.70;;;;;;4939281;28;89358;-91
2023/02/21 11:26:44;;;;;;;4.75;3.08;;;20.90;58.80;;;;;;4949298;28;90432;-93
2023/02/21 11:29:13;;;;;;;9.20;3.70;;;21.00;58.60;;;;;;4935429;28;91162;-92
2023/02/21 11:31:39;;;;;;;8.48;3.53;;;21.00;58.40;;;;;;4931633;28;86858;-94
2023/02/21 11:34:11;;;;;;;5.68;3.15;;;21.10;58.50;;;;;;4935603;28;89827;-91
2023/02/21 11:36:42;;;;;;;7.00;3.75;;;21.00;58.60;;;;;;4955969;28;91379;-91
2023/02/21 11:39:17;;;;;;;5.35;3.17;;;21.10;58.50;;;;;;4938885;28;91492;-93
2023/02/21 11:41:52;;;;;;;6.45;3.50;;;21.10;58.60;;;;;;4947578;28;88492;-90
2023/02/21 11:51:06;;;;;;;5.95;2.90;;;21.00;58.60;;;;;;4918618;28;89982;-91
2023/02/21 11:53:40;;;;;;;6.68;3.47;;;20.90;58.50;;;;;;4925360;28;87038;-92
2023/02/21 11:56:27;;;;;;;7.88;3.58;;;20.90;58.50;;;;;;4922900;28;90698;-93
2023/02/21 11:59:00;;;;;;;6.68;3.67;;;20.90;58.40;;;;;;4922918;28;91501;-92
2023/02/21 12:01:41;;;;;;;8.27;3.92;;;21.00;58.50;;;;;;4915948;28;91693;-93
2023/02/21 12:04:36;;;;;;;7.55;3.38;;;21.00;58.60;;;;;;4907119;28;86947;-92
2023/02/21 12:07:34;;;;;;;7.25;3.50;;;21.10;58.50;;;;;;4867343;28;89492;-92
2023/02/21 12:10:00;;;;;;;6.72;3.40;;;21.10;58.30;;;;;;4876956;28;92288;-91
2023/02/21 12:19:46;;;;;;;9.25;3.35;;;21.20;57.80;;;;;;4876972;28;87662;-89
2023/02/21 12:22:44;;;;;;;15.65;3.78;;;21.10;57.80;;;;;;4877397;28;90916;-92
2023/02/21 12:25:26;;;;;;;7.25;3.70;;;21.10;57.90;;;;;;4870851;28;91176;-93
2023/02/21 12:28:02;;;;;;;6.95;3.70;;;21.10;57.60;;;;;;4862576;28;87772;-92
2023/02/21 12:30:35;;;;;;;8.25;3.92;;;21.00;57.50;;;;;;4862785;28;89202;-91
2023/02/21 12:33:29;;;;;;;7.50;3.28;;;21.00;57.80;;;;;;4869355;28;91475;-93
2023/02/21 12:36:33;;;;;;;6.65;3.38;;;21.00;58.00;;;;;;4873473;28;91012;-92
2023/02/21 12:39:21;;;;;;;9.30;3.50;;;20.90;58.10;;;;;;4805739;29;88844;-94
2023/02/21 12:42:37;;;;;;;7.68;3.45;;;21.00;58.10;;;;;;4799184;29;90438;-93
2023/02/21 12:51:59;;;;;;;7.95;3.70;;;21.10;58.10;;;;;;4808652;29;86920;-90
2023/02/21 12:54:42;;;;;;;6.28;3.75;;;21.30;58.10;;;;;;4815575;29;89143;-88
2023/02/21 12:57:13;;;;;;;8.85;4.10;;;21.30;57.90;;;;;;4808946;29;90113;-94
2023/02/21 12:59:51;;;;;;;8.05;3.95;;;21.20;57.80;;;;;;4809468;29;91228;-91
2023/02/21 13:02:59;;;;;;;9.98;4.03;;;21.20;58.00;;;;;;4815267;29;87950;-94
2023/02/21 13:05:53;;;;;;;7.28;3.83;;;21.10;58.20;;;;;;4854673;29;92846;-95
2023/02/21 13:08:22;;;;;;;9.20;3.72;;;21.10;58.50;;;;;;4828049;29;91883;-96
2023/02/21 13:11:06;;;;;;;10.25;3.60;;;21.10;58.40;;;;;;4904384;28;89904;-94
2023/02/21 13:13:43;;;;;;;;;;;;;;;;;;;;;
2023/02/21 13:16:17;;;;;;;9.30;3.65;;;21.10;58.60;;;;;;4912805;28;88153;-95
2023/02/21 13:19:10;;;;;;;10.35;3.80;;;21.10;58.60;;;;;;4913250;28;90272;-95
2023/02/21 13:25:27;;;;;;;7.80;4.00;;;21.20;58.80;;;;;;4997549;28;90155;-96
2023/02/21 13:27:56;;;;;;;8.80;4.05;;;21.20;58.90;;;;;;4993861;28;86829;-95
2023/02/21 13:30:38;;;;;;;8.48;4.03;;;21.20;58.80;;;;;;4963498;28;90778;-96
2023/02/21 13:33:25;;;;;;;5.97;3.42;;;21.20;58.70;;;;;;4973104;28;90463;-93
2023/02/21 13:36:19;;;;;;;5.28;3.28;;;21.20;58.60;;;;;;4983229;28;87731;-95
2023/02/21 13:38:49;;;;;;;7.60;3.42;;;21.30;58.70;;;;;;4982184;28;92666;-95
2023/02/21 13:41:15;;;;;;;5.55;3.33;;;21.30;58.60;;;;;;4963950;28;91114;-94
2023/02/21 13:43:51;;;;;;;8.80;3.75;;;21.30;58.70;;;;;;4979553;28;90244;-96
2023/02/21 13:46:30;;;;;;;5.35;3.15;;;21.30;58.60;;;;;;4981196;28;86854;-96
2023/02/21 13:49:37;;;;;;;5.07;3.65;;;21.30;58.70;;;;;;4996943;28;88109;-96
2023/02/21 13:52:27;;;;;;;7.72;4.38;;;21.30;58.80;;;;;;4965544;28;89407;-95
2023/02/21 13:55:14;;;;;;;4.80;3.50;;;21.30;58.80;;;;;;4985411;28;89914;-96
2023/02/21 13:57:59;;;;;;;6.95;3.35;;;21.30;58.70;;;;;;4991848;28;86208;-96
2023/02/21 14:00:24;;;;;;;7.22;3.38;;;21.20;58.90;;;;;;5006271;28;88379;-95
2023/02/21 14:03:27;;;;;;;5.95;3.80;;;21.20;59.00;;;;;;5005931;28;90205;-93
2023/02/21 14:06:05;;;;;;;9.50;4.38;;;21.30;58.70;;;;;;4998052;28;94164;-96
2023/02/21 14:08:55;;;;;;;5.75;3.60;;;21.40;58.40;;;;;;4986034;28;86837;-96
2023/02/21 14:11:54;;;;;;;5.38;3.30;;;21.30;59.10;;;;;;4998413;28;87742;-95
2023/02/21 14:14:30;;;;;;;7.83;3.97;;;21.30;58.50;;;;;;5002694;28;87785;-96
2023/02/21 14:17:05;;;;;;;6.63;3.35;;;21.40;58.60;;;;;;4999017;28;88982;-96
2023/02/21 14:19:42;;;;;;;6.65;3.78;;;21.40;58.50;;;;;;4973623;28;89002;-94
2023/02/21 14:22:49;;;;;;;5.15;3.40;;;21.50;58.30;;;;;;4978931;28;89028;-94
2023/02/21 14:28:22;;;;;;;7.18;4.00;;;21.50;57.90;;;;;;4937741;28;86408;-95
2023/02/21 14:30:48;;;;;;;7.22;3.17;;;21.50;58.10;;;;;;4872978;28;87234;-93
2023/02/21 14:33:40;;;;;;;5.28;3.15;;;21.50;58.40;;;;;;4888950;28;88432;-94
2023/02/21 14:36:17;;;;;;;5.45;3.25;;;21.40;58.40;;;;;;4900290;28;89689;-94
2023/02/21 14:38:44;;;;;;;6.68;3.50;;;21.40;58.30;;;;;;4918449;28;86976;-94
2023/02/21 14:41:34;;;;;;;7.85;3.22;;;21.50;58.40;;;;;;4876665;28;87423;-89
2023/02/21 14:44:19;;;;;;;;;;;21.50;58.10;;;;;;4879614;28;90112;-91
2023/02/21 14:47:24;;;;;;;7.32;3.85;;;21.60;58.10;;;;;;4880527;28;90643;-91
2023/02/21 14:49:56;;;;;;;11.38;3.75;;;21.50;57.80;;;;;;4882283;28;91176;-91
2023/02/21 14:53:02;;;;;;;6.40;3.40;;;21.50;58.10;;;;;;4864311;29;87096;-93
2023/02/21 14:55:35;;;;;;;6.95;3.75;;;21.50;58.30;;;;;;4841143;29;89491;-91
2023/02/21 14:58:36;;;;;;;9.15;3.88;;;21.50;58.20;;;;;;4815357;29;93606;-92
2023/02/21 15:01:14;;;;;;;7.70;4.60;;;21.60;58.40;;;;;;4768298;29;92449;-92
2023/02/21 15:04:08;;;;;;;7.53;4.40;;;21.60;58.30;;;;;;4796466;29;87565;-90
2023/02/21 15:06:35;;;;;;;7.25;4.53;;;21.50;57.40;;;;;;4797978;29;90038;-92
2023/02/21 15:09:12;;;;;;;8.75;3.70;;;21.40;56.70;;;;;;4811840;29;90184;-92
2023/02/21 15:11:50;;;;;;;6.40;4.03;;;21.50;56.80;;;;;;4796697;29;90140;-91
2023/02/21 15:14:22;;;;;;;6.70;3.63;;;21.50;57.20;;;;;;4782993;29;87708;-89
2023/02/21 15:17:00;;;;;;;5.55;4.20;;;21.50;57.10;;;;;;4778675;29;90431;-91
2023/02/21 15:19:33;;;;;;;7.00;5.00;;;21.50;57.20;;;;;;4777616;29;90210;-90
2023/02/21 15:25:21;;;;;;;8.80;4.68;;;21.40;56.90;;;;;;4791996;29;88152;-89
2023/02/21 15:27:46;;;;;;;6.47;4.10;;;21.40;56.70;;;;;;4779261;29;89529;-92
2023/02/21 15:30:14;;;;;;;8.27;3.97;;;21.40;57.00;;;;;;4794736;29;91714;-91
2023/02/21 15:32:41;;;;;;;8.30;4.15;;;21.50;56.90;;;;;;4813041;29;90811;-91
2023/02/21 15:38:45;;;;;;;8.32;4.93;;;21.70;56.80;;;;;;4921006;28;89360;-92
2023/02/21 15:41:41;;;;;;;5.82;3.97;;;21.50;56.60;;;;;;4926913;28;91036;-89
2023/02/21 15:44:24;;;;;;;7.15;5.00;;;21.50;57.20;;;;;;4911562;28;91160;-89
2023/02/21 15:47:09;;;;;;;6.32;3.75;;;21.50;56.90;;;;;;4910422;28;87411;-90
2023/02/21 15:49:39;;;;;;;10.18;4.78;;;21.50;57.10;;;;;;4924306;28;90418;-91
2023/02/21 15:55:47;;;;;;;7.05;4.10;;;21.50;57.30;;;;;;4927595;28;87884;-94
2023/02/21 15:58:20;;;;;;;7.35;4.07;;;21.50;57.70;;;;;;4912479;28;87042;-94
2023/02/21 16:00:57;;;;;;;;;;;;;;;;;;;;;
2023/02/21 16:03:41;;;;;;;6.88;3.75;;;21.50;57.60;;;;;;4929359;28;90988;-92
2023/02/21 16:06:12;;;;;;;8.07;3.67;;;21.50;57.60;;;;;;4924693;28;90211;-94
2023/02/21 16:08:57;;;;;;;5.50;3.63;;;21.60;57.70;;;;;;4930449;28;86945;-94
2023/02/21 16:11:44;;;;;;;5.40;3.72;;;21.60;57.70;;;;;;4923088;28;94010;-95
2023/02/21 16:14:25;;;;;;;8.40;4.20;;;21.70;57.80;;;;;;4931102;28;90399;-94
2023/02/21 16:17:07;;;;;;;5.63;3.60;;;21.70;57.70;;;;;;4928529;28;91441;-94
2023/02/21 16:19:34;;;;;;;6.00;4.07;;;21.70;57.70;;;;;;4930895;28;88273;-95
2023/02/21 16:22:21;;;;;;;8.10;4.15;;;21.80;56.80;;;;;;4914135;28;89001;-95
2023/02/21 16:24:47;;;;;;;7.88;3.92;;;21.80;57.00;;;;;;4881919;28;90208;-94
2023/02/21 16:27:16;;;;;;;6.60;3.58;;;21.80;57.30;;;;;;4854978;28;91097;-94
2023/02/21 16:29:41;;;;;;;7.97;4.30;;;21.90;57.20;;;;;;4865806;28;87161;-95
2023/02/21 16:32:17;;;;;;;6.93;3.75;;;21.90;57.30;;;;;;4865513;28;90093;-94
2023/02/21 16:34:43;;;;;;;6.47;3.60;;;22.00;56.80;;;;;;4872535;28;91635;-93
2023/02/21 16:37:12;;;;;;;5.10;3.17;;;22.00;57.00;;;;;;4865159;28;90382;-94
2023/02/21 16:39:44;;;;;;;7.60;4.20;;;21.90;57.10;;;;;;4867818;28;87595;-95
2023/02/21 16:42:10;;;;;;;5.45;3.60;;;21.90;57.10;;;;;;4883971;28;90315;-94
2023/02/21 16:44:35;;;;;;;5.35;3.20;;;21.90;57.20;;;;;;4860517;28;90966;-95
2023/02/21 16:47:01;;;;;;;5.90;3.47;;;21.90;57.20;;;;;;4882633;28;90674;-95
2023/02/21 16:49:45;;;;;;;4.90;4.15;;;21.90;57.50;;;;;;4883440;28;86886;-94
2023/02/21 16:52:14;;;;;;;6.75;3.08;;;21.90;57.10;;;;;;4875017;28;88610;-95
2023/02/21 16:54:40;;;;;;;5.43;3.45;;;21.90;57.30;;;;;;4885401;28;90587;-94
2023/02/21 16:57:06;;;;;;;6.32;3.75;;;21.80;57.30;;;;;;4932336;28;89564;-94
2023/02/21 16:59:32;;;;;;;7.40;3.60;;;21.80;57.30;;;;;;4933127;28;86954;-96
2023/02/21 17:01:57;;;;;;;6.22;3.47;;;21.80;57.60;;;;;;4933249;28;89007;-94
2023/02/21 17:04:28;;;;;;;5.40;3.58;;;21.80;57.80;;;;;;4933363;28;90535;-94
2023/02/21 17:06:57;;;;;;;6.65;3.30;;;21.80;57.70;;;;;;4931031;28;89222;-96
2023/02/21 17:09:25;;;;;;;5.65;3.63;;;21.80;57.40;;;;;;4927530;28;88398;-95
2023/02/21 17:11:52;;;;;;;6.37;2.87;;;22.00;57.20;;;;;;4933689;28;90012;-96
2023/02/21 17:14:18;;;;;;;6.20;3.50;;;22.00;57.20;;;;;;4930123;28;89968;-95
2023/02/21 17:16:44;;;;;;;5.80;2.92;;;22.10;57.40;;;;;;4932157;28;89747;-95
2023/02/21 17:19:36;;;;;;;4.80;3.00;;;22.10;57.20;;;;;;4930225;28;86841;-95
2023/02/21 17:33:14;;;;;;;5.82;3.35;;;21.90;57.40;;;;;;4907992;28;87470;-94
2023/02/21 17:35:40;;;;;;;5.63;3.67;;;21.80;57.70;;;;;;4898808;28;89895;-96
2023/02/21 17:38:06;;;;;;;6.10;3.13;;;21.90;57.70;;;;;;4913110;28;91992;-95
2023/02/21 17:40:32;;;;;;;6.57;3.15;;;21.90;57.50;;;;;;4908727;28;90958;-95
2023/02/21 17:43:17;;;;;;;4.45;3.28;;;21.90;58.20;;;;;;4911535;28;86985;-93
2023/02/21 17:45:45;;;;;;;4.95;3.05;;;21.90;57.60;;;;;;4893494;28;89586;-95
2023/02/21 17:48:10;;;;;;;4.95;3.03;;;21.90;57.60;;;;;;4911942;28;89510;-95
2023/02/21 17:50:36;;;;;;;5.43;3.45;;;22.00;57.70;;;;;;4911705;28;90029;-95
2023/02/21 17:53:02;;;;;;;3.28;2.97;;;22.00;57.50;;;;;;4915475;28;86957;-95
2023/02/21 17:55:29;;;;;;;4.45;3.13;;;22.00;57.50;;;;;;4909223;28;90454;-94
2023/02/21 17:57:54;;;;;;;5.30;3.30;;;22.00;57.60;;;;;;4909552;28;88674;-94
2023/02/21 18:00:24;;;;;;;4.18;3.15;;;22.10;57.60;;;;;;4911380;28;89844;-95
2023/02/21 18:02:51;;;;;;;5.68;3.33;;;22.10;57.40;;;;;;4928574;28;88010;-95